sensor_id;sensor_type;location;lat;lon;timestamp;P1;durP1;ratioP1;P2;durP2;ratioP2
56381;SDS011;50261;51.150;4.470;2022-09-12T00:00:12;10.27;;;8.23;;
56381;SDS011;50261;51.150;4.470;2022-09-12T00:02:38;9.00;;;8.10;;
56381;SDS011;50261;51.150;4.470;2022-09-12T00:05:04;9.30;;;8.32;;
56381;SDS011;50261;51.150;4.470;2022-09-12T00:07:31;9.38;;;7.75;;
56381;SDS011;50261;51.150;4.470;2022-09-12T00:09:57;9.57;;;8.10;;
56381;SDS011;50261;51.150;4.470;2022-09-12T00:12:23;9.57;;;8.60;;
56381;SDS011;50261;51.150;4.470;2022-09-12T00:14:48;9.77;;;8.45;;
56381;SDS011;50261;51.150;4.470;2022-09-12T00:17:14;9.95;;;8.27;;
56381;SDS011;50261;51.150;4.470;2022-09-12T00:19:40;11.07;;;8.95;;
56381;SDS011;50261;51.150;4.470;2022-09-12T00:22:05;10.00;;;8.98;;
56381;SDS011;50261;51.150;4.470;2022-09-12T00:24:31;10.35;;;9.35;;
56381;SDS011;50261;51.150;4.470;2022-09-12T00:26:58;9.85;;;8.85;;
56381;SDS011;50261;51.150;4.470;2022-09-12T00:29:24;9.63;;;8.27;;
56381;SDS011;50261;51.150;4.470;2022-09-12T00:31:49;9.55;;;8.30;;
56381;SDS011;50261;51.150;4.470;2022-09-12T00:34:15;9.60;;;8.48;;
56381;SDS011;50261;51.150;4.470;2022-09-12T00:36:41;9.80;;;8.80;;
56381;SDS011;50261;51.150;4.470;2022-09-12T00:39:07;13.50;;;9.48;;
56381;SDS011;50261;51.150;4.470;2022-09-12T00:41:37;10.30;;;9.23;;
56381;SDS011;50261;51.150;4.470;2022-09-12T00:44:49;10.98;;;9.30;;
56381;SDS011;50261;51.150;4.470;2022-09-12T00:46:51;9.73;;;8.73;;
56381;SDS011;50261;51.150;4.470;2022-09-12T00:49:25;9.68;;;8.68;;
56381;SDS011;50261;51.150;4.470;2022-09-12T00:52:05;9.60;;;8.65;;
56381;SDS011;50261;51.150;4.470;2022-09-12T00:54:35;12.18;;;9.32;;
56381;SDS011;50261;51.150;4.470;2022-09-12T00:57:03;11.70;;;9.18;;
56381;SDS011;50261;51.150;4.470;2022-09-12T00:59:34;10.20;;;9.18;;
56381;SDS011;50261;51.150;4.470;2022-09-12T01:02:03;12.43;;;9.40;;
56381;SDS011;50261;51.150;4.470;2022-09-12T01:04:29;10.88;;;9.50;;
56381;SDS011;50261;51.150;4.470;2022-09-12T01:06:56;11.45;;;9.60;;
56381;SDS011;50261;51.150;4.470;2022-09-12T01:09:23;11.10;;;9.55;;
56381;SDS011;50261;51.150;4.470;2022-09-12T01:11:50;12.98;;;9.27;;
56381;SDS011;50261;51.150;4.470;2022-09-12T01:14:17;11.45;;;8.98;;
56381;SDS011;50261;51.150;4.470;2022-09-12T01:16:43;11.48;;;9.95;;
56381;SDS011;50261;51.150;4.470;2022-09-12T01:21:54;10.90;;;9.80;;
56381;SDS011;50261;51.150;4.470;2022-09-12T01:32:36;11.18;;;9.52;;
56381;SDS011;50261;51.150;4.470;2022-09-12T01:35:19;11.88;;;9.45;;
56381;SDS011;50261;51.150;4.470;2022-09-12T01:40:32;16.35;;;10.20;;
56381;SDS011;50261;51.150;4.470;2022-09-12T01:45:41;11.52;;;9.77;;
56381;SDS011;50261;51.150;4.470;2022-09-12T01:50:39;11.00;;;9.75;;
56381;SDS011;50261;51.150;4.470;2022-09-12T01:55:40;11.63;;;10.43;;
56381;SDS011;50261;51.150;4.470;2022-09-12T01:58:08;13.43;;;10.97;;
56381;SDS011;50261;51.150;4.470;2022-09-12T02:00:38;12.35;;;11.00;;
56381;SDS011;50261;51.150;4.470;2022-09-12T02:03:11;11.27;;;10.07;;
56381;SDS011;50261;51.150;4.470;2022-09-12T02:05:44;12.32;;;11.13;;
56381;SDS011;50261;51.150;4.470;2022-09-12T02:11:12;15.10;;;11.70;;
56381;SDS011;50261;51.150;4.470;2022-09-12T02:13:42;13.68;;;10.70;;
56381;SDS011;50261;51.150;4.470;2022-09-12T02:16:14;12.55;;;11.15;;
56381;SDS011;50261;51.150;4.470;2022-09-12T02:18:43;12.07;;;10.77;;
56381;SDS011;50261;51.150;4.470;2022-09-12T02:21:10;12.30;;;10.52;;
56381;SDS011;50261;51.150;4.470;2022-09-12T02:23:37;14.70;;;10.77;;
56381;SDS011;50261;51.150;4.470;2022-09-12T02:26:06;11.57;;;10.20;;
56381;SDS011;50261;51.150;4.470;2022-09-12T02:28:35;13.20;;;10.38;;
56381;SDS011;50261;51.150;4.470;2022-09-12T02:36:26;12.77;;;10.95;;
56381;SDS011;50261;51.150;4.470;2022-09-12T02:38:55;14.98;;;11.38;;
56381;SDS011;50261;51.150;4.470;2022-09-12T02:41:21;15.00;;;11.75;;
56381;SDS011;50261;51.150;4.470;2022-09-12T02:43:47;12.30;;;10.30;;
56381;SDS011;50261;51.150;4.470;2022-09-12T02:46:24;12.90;;;11.30;;
56381;SDS011;50261;51.150;4.470;2022-09-12T02:48:50;13.52;;;10.50;;
56381;SDS011;50261;51.150;4.470;2022-09-12T02:51:16;12.95;;;11.10;;
56381;SDS011;50261;51.150;4.470;2022-09-12T02:53:42;11.77;;;10.50;;
56381;SDS011;50261;51.150;4.470;2022-09-12T02:56:10;12.98;;;11.13;;
56381;SDS011;50261;51.150;4.470;2022-09-12T02:58:36;12.30;;;10.68;;
56381;SDS011;50261;51.150;4.470;2022-09-12T03:03:50;13.05;;;11.50;;
56381;SDS011;50261;51.150;4.470;2022-09-12T03:06:23;19.10;;;11.13;;
56381;SDS011;50261;51.150;4.470;2022-09-12T03:09:03;12.90;;;11.30;;
56381;SDS011;50261;51.150;4.470;2022-09-12T03:19:46;13.75;;;12.32;;
56381;SDS011;50261;51.150;4.470;2022-09-12T03:22:25;15.95;;;12.77;;
56381;SDS011;50261;51.150;4.470;2022-09-12T03:24:55;15.50;;;12.68;;
56381;SDS011;50261;51.150;4.470;2022-09-12T03:27:26;14.25;;;12.68;;
56381;SDS011;50261;51.150;4.470;2022-09-12T03:29:52;13.23;;;11.90;;
56381;SDS011;50261;51.150;4.470;2022-09-12T03:32:18;14.50;;;12.45;;
56381;SDS011;50261;51.150;4.470;2022-09-12T03:34:44;13.95;;;12.18;;
56381;SDS011;50261;51.150;4.470;2022-09-12T03:37:09;16.10;;;13.65;;
56381;SDS011;50261;51.150;4.470;2022-09-12T03:39:34;18.23;;;14.07;;
56381;SDS011;50261;51.150;4.470;2022-09-12T03:42:00;18.10;;;13.98;;
56381;SDS011;50261;51.150;4.470;2022-09-12T03:44:25;17.73;;;13.18;;
56381;SDS011;50261;51.150;4.470;2022-09-12T03:46:51;17.85;;;13.13;;
56381;SDS011;50261;51.150;4.470;2022-09-12T03:49:16;17.55;;;13.57;;
56381;SDS011;50261;51.150;4.470;2022-09-12T03:51:42;16.33;;;13.13;;
56381;SDS011;50261;51.150;4.470;2022-09-12T03:54:08;17.52;;;13.60;;
56381;SDS011;50261;51.150;4.470;2022-09-12T03:56:34;16.35;;;13.45;;
56381;SDS011;50261;51.150;4.470;2022-09-12T03:59:04;16.23;;;12.90;;
56381;SDS011;50261;51.150;4.470;2022-09-12T04:01:29;16.13;;;12.55;;
56381;SDS011;50261;51.150;4.470;2022-09-12T04:03:55;17.85;;;12.45;;
56381;SDS011;50261;51.150;4.470;2022-09-12T04:06:21;18.73;;;12.77;;
56381;SDS011;50261;51.150;4.470;2022-09-12T04:08:47;19.20;;;13.40;;
56381;SDS011;50261;51.150;4.470;2022-09-12T04:11:14;17.25;;;13.77;;
56381;SDS011;50261;51.150;4.470;2022-09-12T04:13:41;17.73;;;14.13;;
56381;SDS011;50261;51.150;4.470;2022-09-12T04:16:06;16.38;;;13.63;;
56381;SDS011;50261;51.150;4.470;2022-09-12T04:18:33;15.57;;;13.48;;
56381;SDS011;50261;51.150;4.470;2022-09-12T04:21:02;18.55;;;14.57;;
56381;SDS011;50261;51.150;4.470;2022-09-12T04:23:27;19.80;;;14.38;;
56381;SDS011;50261;51.150;4.470;2022-09-12T04:25:56;19.30;;;15.32;;
56381;SDS011;50261;51.150;4.470;2022-09-12T04:28:22;19.15;;;15.52;;
56381;SDS011;50261;51.150;4.470;2022-09-12T04:30:48;17.25;;;14.23;;
56381;SDS011;50261;51.150;4.470;2022-09-12T04:33:14;17.02;;;15.18;;
56381;SDS011;50261;51.150;4.470;2022-09-12T04:35:39;15.80;;;13.90;;
56381;SDS011;50261;51.150;4.470;2022-09-12T04:38:06;16.45;;;14.55;;
56381;SDS011;50261;51.150;4.470;2022-09-12T04:40:31;16.88;;;14.38;;
56381;SDS011;50261;51.150;4.470;2022-09-12T04:42:57;17.63;;;14.65;;
56381;SDS011;50261;51.150;4.470;2022-09-12T04:45:23;16.23;;;14.40;;
56381;SDS011;50261;51.150;4.470;2022-09-12T04:47:48;17.58;;;14.18;;
56381;SDS011;50261;51.150;4.470;2022-09-12T04:50:14;16.20;;;13.90;;
56381;SDS011;50261;51.150;4.470;2022-09-12T04:52:40;19.50;;;13.93;;
56381;SDS011;50261;51.150;4.470;2022-09-12T04:55:05;20.13;;;14.05;;
56381;SDS011;50261;51.150;4.470;2022-09-12T04:57:31;16.88;;;14.20;;
56381;SDS011;50261;51.150;4.470;2022-09-12T04:59:57;15.18;;;13.15;;
56381;SDS011;50261;51.150;4.470;2022-09-12T05:02:23;16.23;;;13.57;;
56381;SDS011;50261;51.150;4.470;2022-09-12T05:04:49;16.77;;;13.70;;
56381;SDS011;50261;51.150;4.470;2022-09-12T05:07:15;15.93;;;14.23;;
56381;SDS011;50261;51.150;4.470;2022-09-12T05:09:41;19.15;;;14.95;;
56381;SDS011;50261;51.150;4.470;2022-09-12T05:12:07;17.90;;;13.80;;
56381;SDS011;50261;51.150;4.470;2022-09-12T05:14:33;18.60;;;14.30;;
56381;SDS011;50261;51.150;4.470;2022-09-12T05:16:59;16.50;;;12.77;;
56381;SDS011;50261;51.150;4.470;2022-09-12T05:19:26;17.73;;;14.27;;
56381;SDS011;50261;51.150;4.470;2022-09-12T05:21:51;15.65;;;13.38;;
56381;SDS011;50261;51.150;4.470;2022-09-12T05:24:17;18.77;;;12.82;;
56381;SDS011;50261;51.150;4.470;2022-09-12T05:26:42;15.25;;;12.95;;
56381;SDS011;50261;51.150;4.470;2022-09-12T05:29:08;15.95;;;13.70;;
56381;SDS011;50261;51.150;4.470;2022-09-12T05:31:34;16.23;;;13.95;;
56381;SDS011;50261;51.150;4.470;2022-09-12T05:33:59;17.70;;;13.75;;
56381;SDS011;50261;51.150;4.470;2022-09-12T05:36:28;17.38;;;13.40;;
56381;SDS011;50261;51.150;4.470;2022-09-12T05:38:55;15.50;;;12.45;;
56381;SDS011;50261;51.150;4.470;2022-09-12T05:41:21;15.43;;;12.75;;
56381;SDS011;50261;51.150;4.470;2022-09-12T05:43:55;14.18;;;12.68;;
56381;SDS011;50261;51.150;4.470;2022-09-12T05:46:24;15.93;;;11.80;;
56381;SDS011;50261;51.150;4.470;2022-09-12T05:48:50;16.33;;;13.43;;
56381;SDS011;50261;51.150;4.470;2022-09-12T05:51:20;16.10;;;12.82;;
56381;SDS011;50261;51.150;4.470;2022-09-12T05:53:47;17.05;;;13.68;;
56381;SDS011;50261;51.150;4.470;2022-09-12T05:56:13;14.13;;;12.50;;
56381;SDS011;50261;51.150;4.470;2022-09-12T05:58:40;16.10;;;12.77;;
56381;SDS011;50261;51.150;4.470;2022-09-12T06:01:07;13.90;;;12.40;;
56381;SDS011;50261;51.150;4.470;2022-09-12T06:03:35;15.75;;;13.52;;
56381;SDS011;50261;51.150;4.470;2022-09-12T06:06:02;19.40;;;15.10;;
56381;SDS011;50261;51.150;4.470;2022-09-12T06:08:29;19.35;;;14.60;;
56381;SDS011;50261;51.150;4.470;2022-09-12T06:11:04;17.27;;;14.93;;
56381;SDS011;50261;51.150;4.470;2022-09-12T06:13:31;17.67;;;13.93;;
56381;SDS011;50261;51.150;4.470;2022-09-12T06:16:04;18.73;;;14.80;;
56381;SDS011;50261;51.150;4.470;2022-09-12T06:18:31;19.67;;;14.97;;
56381;SDS011;50261;51.150;4.470;2022-09-12T06:20:57;15.18;;;13.20;;
56381;SDS011;50261;51.150;4.470;2022-09-12T06:23:26;18.08;;;13.57;;
56381;SDS011;50261;51.150;4.470;2022-09-12T06:25:52;16.70;;;13.23;;
56381;SDS011;50261;51.150;4.470;2022-09-12T06:28:17;17.10;;;13.20;;
56381;SDS011;50261;51.150;4.470;2022-09-12T06:30:44;18.73;;;12.60;;
56381;SDS011;50261;51.150;4.470;2022-09-12T06:33:09;18.10;;;14.80;;
56381;SDS011;50261;51.150;4.470;2022-09-12T06:35:36;16.13;;;12.63;;
56381;SDS011;50261;51.150;4.470;2022-09-12T06:38:02;16.52;;;13.15;;
56381;SDS011;50261;51.150;4.470;2022-09-12T06:40:27;17.25;;;12.68;;
56381;SDS011;50261;51.150;4.470;2022-09-12T06:42:54;16.83;;;13.65;;
56381;SDS011;50261;51.150;4.470;2022-09-12T06:45:30;16.17;;;13.35;;
56381;SDS011;50261;51.150;4.470;2022-09-12T06:47:56;17.52;;;13.63;;
56381;SDS011;50261;51.150;4.470;2022-09-12T06:50:22;20.38;;;14.85;;
56381;SDS011;50261;51.150;4.470;2022-09-12T06:52:48;17.58;;;14.93;;
56381;SDS011;50261;51.150;4.470;2022-09-12T06:55:14;17.90;;;13.88;;
56381;SDS011;50261;51.150;4.470;2022-09-12T06:57:39;17.52;;;13.27;;
56381;SDS011;50261;51.150;4.470;2022-09-12T07:00:05;14.38;;;11.82;;
56381;SDS011;50261;51.150;4.470;2022-09-12T07:02:31;17.08;;;12.32;;
56381;SDS011;50261;51.150;4.470;2022-09-12T07:04:56;16.75;;;12.90;;
56381;SDS011;50261;51.150;4.470;2022-09-12T07:07:22;17.88;;;12.15;;
56381;SDS011;50261;51.150;4.470;2022-09-12T07:09:48;14.75;;;11.60;;
56381;SDS011;50261;51.150;4.470;2022-09-12T07:12:14;14.32;;;12.75;;
56381;SDS011;50261;51.150;4.470;2022-09-12T07:14:39;15.15;;;12.73;;
56381;SDS011;50261;51.150;4.470;2022-09-12T07:17:05;17.13;;;12.25;;
56381;SDS011;50261;51.150;4.470;2022-09-12T07:19:31;14.38;;;11.73;;
56381;SDS011;50261;51.150;4.470;2022-09-12T07:21:57;14.80;;;12.40;;
56381;SDS011;50261;51.150;4.470;2022-09-12T07:24:22;14.52;;;12.40;;
56381;SDS011;50261;51.150;4.470;2022-09-12T07:26:48;17.08;;;12.55;;
56381;SDS011;50261;51.150;4.470;2022-09-12T07:29:15;15.65;;;13.30;;
56381;SDS011;50261;51.150;4.470;2022-09-12T07:31:40;20.98;;;13.82;;
56381;SDS011;50261;51.150;4.470;2022-09-12T07:34:06;19.50;;;13.38;;
56381;SDS011;50261;51.150;4.470;2022-09-12T07:36:31;20.50;;;13.65;;
56381;SDS011;50261;51.150;4.470;2022-09-12T07:38:57;16.35;;;13.07;;
56381;SDS011;50261;51.150;4.470;2022-09-12T07:41:29;17.52;;;12.27;;
56381;SDS011;50261;51.150;4.470;2022-09-12T07:43:58;14.98;;;12.30;;
56381;SDS011;50261;51.150;4.470;2022-09-12T07:46:25;15.30;;;12.48;;
56381;SDS011;50261;51.150;4.470;2022-09-12T07:48:54;13.60;;;11.98;;
56381;SDS011;50261;51.150;4.470;2022-09-12T07:51:20;15.35;;;12.20;;
56381;SDS011;50261;51.150;4.470;2022-09-12T07:53:46;16.45;;;12.52;;
56381;SDS011;50261;51.150;4.470;2022-09-12T07:56:13;15.70;;;11.70;;
56381;SDS011;50261;51.150;4.470;2022-09-12T07:58:39;14.80;;;11.88;;
56381;SDS011;50261;51.150;4.470;2022-09-12T08:01:10;14.02;;;10.77;;
56381;SDS011;50261;51.150;4.470;2022-09-12T08:03:37;14.40;;;11.18;;
56381;SDS011;50261;51.150;4.470;2022-09-12T08:06:07;14.55;;;10.35;;
56381;SDS011;50261;51.150;4.470;2022-09-12T08:08:32;14.75;;;10.60;;
56381;SDS011;50261;51.150;4.470;2022-09-12T08:10:59;15.98;;;10.77;;
56381;SDS011;50261;51.150;4.470;2022-09-12T08:13:25;12.65;;;9.10;;
56381;SDS011;50261;51.150;4.470;2022-09-12T08:15:51;10.57;;;9.32;;
56381;SDS011;50261;51.150;4.470;2022-09-12T08:18:16;13.10;;;9.77;;
56381;SDS011;50261;51.150;4.470;2022-09-12T08:20:41;11.82;;;9.55;;
56381;SDS011;50261;51.150;4.470;2022-09-12T08:23:07;14.50;;;8.93;;
56381;SDS011;50261;51.150;4.470;2022-09-12T08:25:32;12.23;;;9.13;;
56381;SDS011;50261;51.150;4.470;2022-09-12T08:27:58;13.73;;;8.88;;
56381;SDS011;50261;51.150;4.470;2022-09-12T08:30:26;11.07;;;8.52;;
56381;SDS011;50261;51.150;4.470;2022-09-12T08:32:51;10.90;;;8.25;;
56381;SDS011;50261;51.150;4.470;2022-09-12T08:35:17;13.43;;;8.02;;
56381;SDS011;50261;51.150;4.470;2022-09-12T08:37:42;12.48;;;8.35;;
56381;SDS011;50261;51.150;4.470;2022-09-12T08:40:13;12.13;;;8.27;;
56381;SDS011;50261;51.150;4.470;2022-09-12T08:45:14;10.55;;;7.05;;
56381;SDS011;50261;51.150;4.470;2022-09-12T08:52:34;9.57;;;6.72;;
56381;SDS011;50261;51.150;4.470;2022-09-12T08:55:01;8.25;;;6.32;;
56381;SDS011;50261;51.150;4.470;2022-09-12T08:57:27;9.07;;;6.15;;
56381;SDS011;50261;51.150;4.470;2022-09-12T08:59:53;8.90;;;5.60;;
56381;SDS011;50261;51.150;4.470;2022-09-12T09:02:41;11.00;;;5.35;;
56381;SDS011;50261;51.150;4.470;2022-09-12T09:10:26;5.03;;;3.95;;
56381;SDS011;50261;51.150;4.470;2022-09-12T09:18:59;6.63;;;3.72;;
56381;SDS011;50261;51.150;4.470;2022-09-12T09:24:04;7.35;;;2.95;;
56381;SDS011;50261;51.150;4.470;2022-09-12T09:26:46;6.28;;;3.65;;
56381;SDS011;50261;51.150;4.470;2022-09-12T09:29:15;6.50;;;3.45;;
56381;SDS011;50261;51.150;4.470;2022-09-12T09:31:42;4.45;;;3.53;;
56381;SDS011;50261;51.150;4.470;2022-09-12T09:34:20;5.22;;;3.78;;
56381;SDS011;50261;51.150;4.470;2022-09-12T09:36:50;7.32;;;3.45;;
56381;SDS011;50261;51.150;4.470;2022-09-12T09:42:18;5.43;;;2.97;;
56381;SDS011;50261;51.150;4.470;2022-09-12T09:44:48;4.32;;;3.05;;
56381;SDS011;50261;51.150;4.470;2022-09-12T09:47:17;4.85;;;3.67;;
56381;SDS011;50261;51.150;4.470;2022-09-12T09:49:43;5.55;;;2.90;;
56381;SDS011;50261;51.150;4.470;2022-09-12T09:52:09;4.40;;;2.70;;
56381;SDS011;50261;51.150;4.470;2022-09-12T09:54:46;5.97;;;2.88;;
56381;SDS011;50261;51.150;4.470;2022-09-12T09:59:58;7.03;;;3.42;;
56381;SDS011;50261;51.150;4.470;2022-09-12T10:02:23;5.88;;;3.03;;
56381;SDS011;50261;51.150;4.470;2022-09-12T10:04:56;3.50;;;2.92;;
56381;SDS011;50261;51.150;4.470;2022-09-12T10:07:24;4.47;;;3.15;;
56381;SDS011;50261;51.150;4.470;2022-09-12T10:12:34;4.95;;;3.30;;
56381;SDS011;50261;51.150;4.470;2022-09-12T10:15:00;4.10;;;2.85;;
56381;SDS011;50261;51.150;4.470;2022-09-12T10:17:30;4.72;;;2.72;;
56381;SDS011;50261;51.150;4.470;2022-09-12T10:19:56;3.80;;;2.60;;
56381;SDS011;50261;51.150;4.470;2022-09-12T10:22:22;4.93;;;3.40;;
56381;SDS011;50261;51.150;4.470;2022-09-12T10:24:49;4.65;;;2.55;;
56381;SDS011;50261;51.150;4.470;2022-09-12T10:27:23;4.13;;;2.80;;
56381;SDS011;50261;51.150;4.470;2022-09-12T10:30:32;4.15;;;2.83;;
56381;SDS011;50261;51.150;4.470;2022-09-12T10:32:41;7.18;;;2.65;;
56381;SDS011;50261;51.150;4.470;2022-09-12T10:35:29;7.85;;;2.85;;
56381;SDS011;50261;51.150;4.470;2022-09-12T10:38:02;4.97;;;2.78;;
56381;SDS011;50261;51.150;4.470;2022-09-12T10:40:29;4.47;;;3.03;;
56381;SDS011;50261;51.150;4.470;2022-09-12T10:42:57;5.47;;;2.67;;
56381;SDS011;50261;51.150;4.470;2022-09-12T10:45:24;3.85;;;2.13;;
56381;SDS011;50261;51.150;4.470;2022-09-12T10:47:51;3.05;;;2.03;;
56381;SDS011;50261;51.150;4.470;2022-09-12T10:50:27;2.78;;;1.80;;
56381;SDS011;50261;51.150;4.470;2022-09-12T10:52:53;2.97;;;1.95;;
56381;SDS011;50261;51.150;4.470;2022-09-12T10:55:23;7.70;;;2.33;;
56381;SDS011;50261;51.150;4.470;2022-09-12T11:00:18;2.40;;;1.40;;
56381;SDS011;50261;51.150;4.470;2022-09-12T11:08:25;2.45;;;1.80;;
56381;SDS011;50261;51.150;4.470;2022-09-12T11:28:33;4.72;;;1.50;;
56381;SDS011;50261;51.150;4.470;2022-09-12T11:33:50;2.10;;;1.60;;
56381;SDS011;50261;51.150;4.470;2022-09-12T11:43:56;2.97;;;1.50;;
56381;SDS011;50261;51.150;4.470;2022-09-12T11:56:41;3.70;;;1.15;;
56381;SDS011;50261;51.150;4.470;2022-09-12T11:59:11;1.63;;;1.10;;
56381;SDS011;50261;51.150;4.470;2022-09-12T12:01:40;2.70;;;1.25;;
56381;SDS011;50261;51.150;4.470;2022-09-12T12:04:12;1.83;;;1.20;;
56381;SDS011;50261;51.150;4.470;2022-09-12T12:06:47;2.95;;;1.15;;
56381;SDS011;50261;51.150;4.470;2022-09-12T12:09:13;2.88;;;1.20;;
56381;SDS011;50261;51.150;4.470;2022-09-12T12:11:40;1.98;;;1.50;;
56381;SDS011;50261;51.150;4.470;2022-09-12T12:14:14;3.83;;;1.25;;
56381;SDS011;50261;51.150;4.470;2022-09-12T12:16:41;2.38;;;1.20;;
56381;SDS011;50261;51.150;4.470;2022-09-12T12:21:42;3.70;;;1.33;;
56381;SDS011;50261;51.150;4.470;2022-09-12T12:32:17;2.15;;;1.40;;
56381;SDS011;50261;51.150;4.470;2022-09-12T12:36:57;1.20;;;1.00;;
56381;SDS011;50261;51.150;4.470;2022-09-12T12:42:00;1.83;;;1.10;;
56381;SDS011;50261;51.150;4.470;2022-09-12T12:47:18;3.55;;;1.10;;
56381;SDS011;50261;51.150;4.470;2022-09-12T12:49:51;1.38;;;1.02;;
56381;SDS011;50261;51.150;4.470;2022-09-12T12:52:17;2.33;;;1.58;;
56381;SDS011;50261;51.150;4.470;2022-09-12T12:59:44;3.53;;;1.80;;
56381;SDS011;50261;51.150;4.470;2022-09-12T13:05:18;2.08;;;1.23;;
56381;SDS011;50261;51.150;4.470;2022-09-12T13:07:44;3.35;;;1.48;;
56381;SDS011;50261;51.150;4.470;2022-09-12T13:10:22;3.13;;;1.40;;
56381;SDS011;50261;51.150;4.470;2022-09-12T13:12:48;2.15;;;1.20;;
56381;SDS011;50261;51.150;4.470;2022-09-12T13:15:28;1.50;;;0.90;;
56381;SDS011;50261;51.150;4.470;2022-09-12T13:18:11;1.70;;;1.20;;
56381;SDS011;50261;51.150;4.470;2022-09-12T13:20:47;2.17;;;1.20;;
56381;SDS011;50261;51.150;4.470;2022-09-12T13:26:10;4.20;;;1.50;;
56381;SDS011;50261;51.150;4.470;2022-09-12T13:28:36;2.22;;;1.15;;
56381;SDS011;50261;51.150;4.470;2022-09-12T13:31:21;2.28;;;1.30;;
56381;SDS011;50261;51.150;4.470;2022-09-12T13:33:57;5.13;;;1.38;;
56381;SDS011;50261;51.150;4.470;2022-09-12T13:41:45;2.78;;;1.20;;
56381;SDS011;50261;51.150;4.470;2022-09-12T13:44:15;1.60;;;0.88;;
56381;SDS011;50261;51.150;4.470;2022-09-12T13:46:42;1.50;;;0.90;;
56381;SDS011;50261;51.150;4.470;2022-09-12T13:51:39;2.33;;;1.10;;
56381;SDS011;50261;51.150;4.470;2022-09-12T13:54:04;2.83;;;1.50;;
56381;SDS011;50261;51.150;4.470;2022-09-12T13:56:30;6.45;;;1.30;;
56381;SDS011;50261;51.150;4.470;2022-09-12T14:01:35;3.38;;;1.30;;
56381;SDS011;50261;51.150;4.470;2022-09-12T14:04:06;3.13;;;1.30;;
56381;SDS011;50261;51.150;4.470;2022-09-12T14:06:52;2.08;;;1.15;;
56381;SDS011;50261;51.150;4.470;2022-09-12T14:09:22;3.03;;;1.00;;
56381;SDS011;50261;51.150;4.470;2022-09-12T14:11:48;6.85;;;1.20;;
56381;SDS011;50261;51.150;4.470;2022-09-12T14:14:34;3.03;;;1.00;;
56381;SDS011;50261;51.150;4.470;2022-09-12T14:19:26;2.20;;;1.20;;
56381;SDS011;50261;51.150;4.470;2022-09-12T14:21:53;3.33;;;1.55;;
56381;SDS011;50261;51.150;4.470;2022-09-12T14:24:19;3.25;;;1.30;;
56381;SDS011;50261;51.150;4.470;2022-09-12T14:26:50;1.40;;;1.05;;
56381;SDS011;50261;51.150;4.470;2022-09-12T14:29:17;2.53;;;1.40;;
56381;SDS011;50261;51.150;4.470;2022-09-12T14:31:42;2.30;;;1.25;;
56381;SDS011;50261;51.150;4.470;2022-09-12T14:34:15;3.47;;;1.58;;
56381;SDS011;50261;51.150;4.470;2022-09-12T14:39:51;2.40;;;1.30;;
56381;SDS011;50261;51.150;4.470;2022-09-12T14:42:11;2.03;;;1.20;;
56381;SDS011;50261;51.150;4.470;2022-09-12T14:44:37;2.38;;;1.40;;
56381;SDS011;50261;51.150;4.470;2022-09-12T14:47:10;2.80;;;1.35;;
56381;SDS011;50261;51.150;4.470;2022-09-12T14:49:36;3.00;;;1.60;;
56381;SDS011;50261;51.150;4.470;2022-09-12T14:52:06;2.92;;;1.30;;
56381;SDS011;50261;51.150;4.470;2022-09-12T14:56:58;4.03;;;1.80;;
56381;SDS011;50261;51.150;4.470;2022-09-12T14:59:26;2.22;;;1.40;;
56381;SDS011;50261;51.150;4.470;2022-09-12T15:02:18;5.28;;;1.50;;
56381;SDS011;50261;51.150;4.470;2022-09-12T15:04:54;4.13;;;1.30;;
56381;SDS011;50261;51.150;4.470;2022-09-12T15:09:59;2.22;;;1.20;;
56381;SDS011;50261;51.150;4.470;2022-09-12T15:12:25;3.75;;;1.58;;
56381;SDS011;50261;51.150;4.470;2022-09-12T15:14:50;3.33;;;1.60;;
56381;SDS011;50261;51.150;4.470;2022-09-12T15:17:16;3.05;;;1.20;;
56381;SDS011;50261;51.150;4.470;2022-09-12T15:19:41;4.18;;;1.27;;
56381;SDS011;50261;51.150;4.470;2022-09-12T15:22:09;4.63;;;1.17;;
56381;SDS011;50261;51.150;4.470;2022-09-12T15:24:35;4.85;;;1.60;;
56381;SDS011;50261;51.150;4.470;2022-09-12T15:27:04;2.63;;;1.42;;
56381;SDS011;50261;51.150;4.470;2022-09-12T15:29:29;2.47;;;1.30;;
56381;SDS011;50261;51.150;4.470;2022-09-12T15:31:55;2.40;;;1.20;;
56381;SDS011;50261;51.150;4.470;2022-09-12T15:34:21;1.98;;;1.15;;
56381;SDS011;50261;51.150;4.470;2022-09-12T15:36:46;2.47;;;1.10;;
56381;SDS011;50261;51.150;4.470;2022-09-12T15:39:12;2.95;;;1.40;;
56381;SDS011;50261;51.150;4.470;2022-09-12T15:41:38;2.75;;;1.35;;
56381;SDS011;50261;51.150;4.470;2022-09-12T15:44:03;3.75;;;1.20;;
56381;SDS011;50261;51.150;4.470;2022-09-12T15:46:29;3.10;;;1.30;;
56381;SDS011;50261;51.150;4.470;2022-09-12T15:48:55;4.78;;;1.40;;
56381;SDS011;50261;51.150;4.470;2022-09-12T15:51:20;3.45;;;1.27;;
56381;SDS011;50261;51.150;4.470;2022-09-12T15:53:46;3.00;;;1.38;;
56381;SDS011;50261;51.150;4.470;2022-09-12T15:56:15;2.42;;;1.20;;
56381;SDS011;50261;51.150;4.470;2022-09-12T15:58:41;1.67;;;1.10;;
56381;SDS011;50261;51.150;4.470;2022-09-12T16:01:08;2.15;;;1.10;;
56381;SDS011;50261;51.150;4.470;2022-09-12T16:03:34;4.85;;;1.20;;
56381;SDS011;50261;51.150;4.470;2022-09-12T16:06:00;4.43;;;1.08;;
56381;SDS011;50261;51.150;4.470;2022-09-12T16:08:27;4.57;;;1.30;;
56381;SDS011;50261;51.150;4.470;2022-09-12T16:10:54;4.35;;;1.40;;
56381;SDS011;50261;51.150;4.470;2022-09-12T16:13:23;2.58;;;1.48;;
56381;SDS011;50261;51.150;4.470;2022-09-12T16:15:49;2.22;;;1.23;;
56381;SDS011;50261;51.150;4.470;2022-09-12T16:18:15;2.03;;;0.90;;
56381;SDS011;50261;51.150;4.470;2022-09-12T16:20:40;6.57;;;1.50;;
56381;SDS011;50261;51.150;4.470;2022-09-12T16:23:06;4.50;;;1.27;;
56381;SDS011;50261;51.150;4.470;2022-09-12T16:25:31;2.78;;;1.38;;
56381;SDS011;50261;51.150;4.470;2022-09-12T16:27:57;5.30;;;1.63;;
56381;SDS011;50261;51.150;4.470;2022-09-12T16:30:22;5.75;;;1.30;;
56381;SDS011;50261;51.150;4.470;2022-09-12T16:32:48;4.47;;;1.23;;
56381;SDS011;50261;51.150;4.470;2022-09-12T16:35:13;2.85;;;1.30;;
56381;SDS011;50261;51.150;4.470;2022-09-12T16:37:39;4.47;;;1.55;;
56381;SDS011;50261;51.150;4.470;2022-09-12T16:40:04;2.83;;;1.80;;
56381;SDS011;50261;51.150;4.470;2022-09-12T16:42:30;2.25;;;1.40;;
56381;SDS011;50261;51.150;4.470;2022-09-12T16:44:56;3.13;;;1.60;;
56381;SDS011;50261;51.150;4.470;2022-09-12T16:47:21;2.15;;;1.42;;
56381;SDS011;50261;51.150;4.470;2022-09-12T16:49:47;2.47;;;1.52;;
56381;SDS011;50261;51.150;4.470;2022-09-12T16:52:12;5.82;;;1.92;;
56381;SDS011;50261;51.150;4.470;2022-09-12T16:54:41;3.20;;;1.85;;
56381;SDS011;50261;51.150;4.470;2022-09-12T16:57:06;3.88;;;2.53;;
56381;SDS011;50261;51.150;4.470;2022-09-12T16:59:32;3.45;;;2.10;;
56381;SDS011;50261;51.150;4.470;2022-09-12T17:01:57;5.32;;;2.38;;
56381;SDS011;50261;51.150;4.470;2022-09-12T17:04:23;3.58;;;2.03;;
56381;SDS011;50261;51.150;4.470;2022-09-12T17:06:48;4.18;;;1.90;;
56381;SDS011;50261;51.150;4.470;2022-09-12T17:09:14;3.83;;;1.83;;
56381;SDS011;50261;51.150;4.470;2022-09-12T17:11:43;3.05;;;1.60;;
56381;SDS011;50261;51.150;4.470;2022-09-12T17:14:08;3.60;;;2.15;;
56381;SDS011;50261;51.150;4.470;2022-09-12T17:16:36;5.72;;;2.38;;
56381;SDS011;50261;51.150;4.470;2022-09-12T17:19:02;3.53;;;1.67;;
56381;SDS011;50261;51.150;4.470;2022-09-12T17:21:28;3.03;;;1.77;;
56381;SDS011;50261;51.150;4.470;2022-09-12T17:23:53;3.92;;;2.05;;
56381;SDS011;50261;51.150;4.470;2022-09-12T17:26:19;3.80;;;1.55;;